createdAt,value
2022-08-27T00:00:26.006Z,9.20
2022-08-27T00:01:25.986Z,8.60
2022-08-27T00:02:25.990Z,8.70
2022-08-27T00:03:25.960Z,9.30
2022-08-27T00:04:26.008Z,8.80
2022-08-27T00:05:25.925Z,8.20
2022-08-27T00:06:26.050Z,9.30
2022-08-27T00:07:25.918Z,8.40
2022-08-27T00:08:26.205Z,9.10
2022-08-27T00:09:27.053Z,8.30
2022-08-27T00:10:25.888Z,8.30
2022-08-27T00:11:25.875Z,8.60
2022-08-27T00:12:25.870Z,8.40
2022-08-27T00:13:25.862Z,8.10
2022-08-27T00:14:25.832Z,8.20
2022-08-27T00:15:25.838Z,9.20
2022-08-27T00:16:26.122Z,9.50
2022-08-27T00:17:25.799Z,8.70
2022-08-27T00:18:25.800Z,8.20
2022-08-27T00:19:25.797Z,8.20
2022-08-27T00:20:25.757Z,6.80
2022-08-27T00:21:25.756Z,7.10
2022-08-27T00:22:25.869Z,6.40
2022-08-27T00:23:25.738Z,7.00
2022-08-27T00:24:25.745Z,7.20
2022-08-27T00:25:25.720Z,7.00
2022-08-27T00:26:25.716Z,7.20
2022-08-27T00:27:25.752Z,6.80
2022-08-27T00:28:25.676Z,6.70
2022-08-27T00:29:25.678Z,6.70
2022-08-27T00:30:25.667Z,6.90
2022-08-27T00:31:27.517Z,6.90
2022-08-27T00:32:25.730Z,7.40
2022-08-27T00:33:25.637Z,7.40
2022-08-27T00:34:25.638Z,7.80
2022-08-27T00:35:25.631Z,7.80
2022-08-27T00:36:25.624Z,7.50
2022-08-27T00:37:25.617Z,7.90
2022-08-27T00:38:25.587Z,7.90
2022-08-27T00:39:25.565Z,7.90
2022-08-27T00:40:25.643Z,8.70
2022-08-27T00:41:25.557Z,7.90
2022-08-27T00:42:25.562Z,8.20
2022-08-27T00:43:25.538Z,7.60
2022-08-27T00:44:25.524Z,7.80
2022-08-27T00:45:25.638Z,7.80
2022-08-27T00:46:25.505Z,7.70
2022-08-27T00:47:25.497Z,7.50
2022-08-27T00:48:25.462Z,7.90
2022-08-27T00:49:25.474Z,8.40
2022-08-27T00:50:25.462Z,7.90
2022-08-27T00:51:25.449Z,8.60
2022-08-27T00:52:25.441Z,7.70
2022-08-27T00:53:25.434Z,7.40
2022-08-27T00:54:25.417Z,7.70
2022-08-27T00:55:25.399Z,7.10
2022-08-27T00:56:25.375Z,7.20
2022-08-27T00:57:25.345Z,7.20
2022-08-27T00:58:25.382Z,7.00
2022-08-27T00:59:25.347Z,7.30
2022-08-27T01:00:25.358Z,7.00
2022-08-27T01:01:25.371Z,7.30
2022-08-27T01:02:25.416Z,7.40
2022-08-27T01:03:25.301Z,7.90
2022-08-27T01:04:25.298Z,7.60
2022-08-27T01:05:25.303Z,7.20
2022-08-27T01:06:25.300Z,7.30
2022-08-27T01:07:25.268Z,7.50
2022-08-27T01:08:25.252Z,9.00
2022-08-27T01:09:25.243Z,8.70
2022-08-27T01:10:25.237Z,8.40
2022-08-27T01:11:25.253Z,8.50
2022-08-27T01:12:25.229Z,7.90
2022-08-27T01:13:58.793Z,7.60
2022-08-27T01:14:26.226Z,8.10
2022-08-27T01:15:25.179Z,8.40
2022-08-27T01:16:25.165Z,8.40
2022-08-27T01:17:25.135Z,7.30
2022-08-27T01:18:25.140Z,7.00
2022-08-27T01:19:25.130Z,7.30
2022-08-27T01:20:25.128Z,7.50
2022-08-27T01:21:25.095Z,7.20
2022-08-27T01:22:25.145Z,7.00
2022-08-27T01:23:25.067Z,8.70
2022-08-27T01:24:25.067Z,8.10
2022-08-27T01:25:25.059Z,7.80
2022-08-27T01:26:25.057Z,8.30
2022-08-27T01:27:25.034Z,8.90
2022-08-27T01:28:29.227Z,8.60
2022-08-27T01:29:26.017Z,7.90
2022-08-27T01:30:25.043Z,8.10
2022-08-27T01:31:25.030Z,7.40
2022-08-27T01:32:24.979Z,7.50
2022-08-27T01:33:24.981Z,7.40
2022-08-27T01:34:25.022Z,7.40
2022-08-27T01:35:24.932Z,7.30
2022-08-27T01:36:24.944Z,7.50
2022-08-27T01:37:24.928Z,7.60
2022-08-27T01:38:31.119Z,7.70
2022-08-27T01:39:25.986Z,7.90
2022-08-27T01:40:25.292Z,8.30
2022-08-27T01:41:24.874Z,8.10
2022-08-27T01:42:25.238Z,6.20
2022-08-27T01:43:24.863Z,6.60
2022-08-27T01:44:24.868Z,7.30
2022-08-27T01:45:24.851Z,6.70
2022-08-27T01:46:24.890Z,6.90
2022-08-27T01:47:24.803Z,6.30
2022-08-27T01:48:25.798Z,6.20
2022-08-27T01:49:25.638Z,6.30
2022-08-27T01:50:24.809Z,6.10
2022-08-27T01:51:24.778Z,5.50
2022-08-27T01:52:24.795Z,5.80
2022-08-27T01:53:24.768Z,6.40
2022-08-27T01:54:24.748Z,6.50
2022-08-27T01:55:24.741Z,6.70
2022-08-27T01:56:24.716Z,6.70
2022-08-27T01:57:26.177Z,7.10
2022-08-27T01:58:24.723Z,7.00
2022-08-27T01:59:25.517Z,7.20
2022-08-27T02:00:25.679Z,6.40
2022-08-27T02:01:24.751Z,6.80
2022-08-27T02:02:24.688Z,6.80
2022-08-27T02:03:24.656Z,6.60
2022-08-27T02:04:24.644Z,7.50
2022-08-27T02:05:24.605Z,7.50
2022-08-27T02:06:24.593Z,8.20
2022-08-27T02:07:24.587Z,7.90
2022-08-27T02:08:24.598Z,8.50
2022-08-27T02:09:24.713Z,7.70
2022-08-27T02:10:24.574Z,8.00
2022-08-27T02:11:24.545Z,7.60
2022-08-27T02:12:24.541Z,6.50
2022-08-27T02:13:24.534Z,7.20
2022-08-27T02:14:24.538Z,6.20
2022-08-27T02:15:24.836Z,6.30
2022-08-27T02:16:24.633Z,6.20
2022-08-27T02:17:24.488Z,6.00
2022-08-27T02:18:24.493Z,5.90
2022-08-27T02:19:24.508Z,5.90
2022-08-27T02:20:24.515Z,6.60
2022-08-27T02:21:24.433Z,5.70
2022-08-27T02:22:24.482Z,5.70
2022-08-27T02:23:24.437Z,6.40
2022-08-27T02:24:24.404Z,6.40
2022-08-27T02:25:24.408Z,6.40
2022-08-27T02:26:24.417Z,6.30
2022-08-27T02:27:24.386Z,6.00
2022-08-27T02:28:24.375Z,5.70
2022-08-27T02:29:24.373Z,6.30
2022-08-27T02:30:24.364Z,6.50
2022-08-27T02:31:24.387Z,6.00
2022-08-27T02:32:31.315Z,6.40
2022-08-27T02:33:25.316Z,6.20
2022-08-27T02:34:24.304Z,6.30
2022-08-27T02:35:24.284Z,6.00
2022-08-27T02:36:24.302Z,6.30
2022-08-27T02:37:24.277Z,6.20
2022-08-27T02:38:24.255Z,6.00
2022-08-27T02:39:24.237Z,5.80
2022-08-27T02:40:24.329Z,6.10
2022-08-27T02:41:24.216Z,6.10
2022-08-27T02:42:24.196Z,6.10
2022-08-27T02:43:25.135Z,6.50
2022-08-27T02:44:24.188Z,6.60
2022-08-27T02:45:24.245Z,6.30
2022-08-27T02:46:24.206Z,6.10
2022-08-27T02:47:24.165Z,5.90
2022-08-27T02:48:24.154Z,6.70
2022-08-27T02:49:24.157Z,6.50
2022-08-27T02:50:27.026Z,5.50
2022-08-27T02:51:24.118Z,6.50
2022-08-27T02:52:25.258Z,6.90
2022-08-27T02:53:24.127Z,6.60
2022-08-27T02:54:24.107Z,6.90
2022-08-27T02:55:24.077Z,7.00
2022-08-27T02:56:24.068Z,6.60
2022-08-27T02:57:24.062Z,6.80
2022-08-27T02:58:24.088Z,6.10
2022-08-27T02:59:24.018Z,6.40
2022-08-27T03:00:24.017Z,6.90
2022-08-27T03:01:24.087Z,6.70
2022-08-27T03:02:24.052Z,6.40
2022-08-27T03:03:23.989Z,7.00
2022-08-27T03:04:23.978Z,6.70
2022-08-27T03:05:23.985Z,6.30
2022-08-27T03:06:23.957Z,6.10
2022-08-27T03:07:23.936Z,6.50
2022-08-27T03:08:23.925Z,6.50
2022-08-27T03:09:23.909Z,6.70
2022-08-27T03:10:24.016Z,6.20
2022-08-27T03:11:23.926Z,5.60
2022-08-27T03:12:24.796Z,5.30
2022-08-27T03:13:23.877Z,6.30
2022-08-27T03:14:23.858Z,5.90
2022-08-27T03:15:23.851Z,5.60
2022-08-27T03:16:23.954Z,5.10
2022-08-27T03:17:23.847Z,5.50
2022-08-27T03:18:23.804Z,7.00
2022-08-27T03:19:24.302Z,6.40
2022-08-27T03:20:23.794Z,6.50
2022-08-27T03:21:23.889Z,6.80
2022-08-27T03:22:23.755Z,5.70
2022-08-27T03:23:23.767Z,5.30
2022-08-27T03:24:23.773Z,6.70
2022-08-27T03:25:23.724Z,6.60
2022-08-27T03:26:23.716Z,6.50
2022-08-27T03:27:23.741Z,6.40
2022-08-27T03:28:23.902Z,7.00
2022-08-27T03:29:23.707Z,6.90
2022-08-27T03:30:23.684Z,7.00
2022-08-27T03:31:23.710Z,7.00
2022-08-27T03:32:23.659Z,7.10
2022-08-27T03:33:23.635Z,7.20
2022-08-27T03:34:23.687Z,7.10
2022-08-27T03:35:23.637Z,7.00
2022-08-27T03:36:23.626Z,7.10
2022-08-27T03:37:23.593Z,7.10
2022-08-27T03:38:23.586Z,6.80
2022-08-27T03:39:23.584Z,6.70
2022-08-27T03:40:23.679Z,6.60
2022-08-27T03:41:23.567Z,7.30
2022-08-27T03:42:24.557Z,7.10
2022-08-27T03:43:23.619Z,7.00
2022-08-27T03:44:23.536Z,7.20
2022-08-27T03:45:23.524Z,7.70
2022-08-27T03:46:23.526Z,7.60
2022-08-27T03:47:23.547Z,7.90
2022-08-27T03:48:23.500Z,7.80
2022-08-27T03:49:23.595Z,8.60
2022-08-27T03:50:23.507Z,8.70
2022-08-27T03:51:23.443Z,8.40
2022-08-27T03:52:23.433Z,8.70
2022-08-27T03:53:23.445Z,8.80
2022-08-27T03:54:23.419Z,8.70
2022-08-27T03:55:23.404Z,8.90
2022-08-27T03:56:23.417Z,9.10
2022-08-27T03:57:23.441Z,8.30
2022-08-27T03:58:23.385Z,8.70
2022-08-27T03:59:23.368Z,7.70
2022-08-27T04:00:23.356Z,7.80
2022-08-27T04:01:23.364Z,8.10
2022-08-27T04:02:23.418Z,7.90
2022-08-27T04:03:23.383Z,7.70
2022-08-27T04:04:23.310Z,7.80
2022-08-27T04:05:23.298Z,8.70
2022-08-27T04:06:23.285Z,8.30
2022-08-27T04:07:23.285Z,8.50
2022-08-27T04:08:23.245Z,8.70
2022-08-27T04:09:23.258Z,9.30
2022-08-27T04:10:23.232Z,9.10
2022-08-27T04:11:23.234Z,9.00
2022-08-27T04:12:23.204Z,8.50
2022-08-27T04:13:23.288Z,9.20
2022-08-27T04:14:26.860Z,8.10
2022-08-27T04:15:23.189Z,7.70
2022-08-27T04:16:23.243Z,7.40
2022-08-27T04:17:23.157Z,7.20
2022-08-27T04:18:23.145Z,7.30
2022-08-27T04:19:27.263Z,7.20
2022-08-27T04:20:34.902Z,7.90
2022-08-27T04:21:24.157Z,7.40
2022-08-27T04:22:23.093Z,7.20
2022-08-27T04:23:23.110Z,7.20
2022-08-27T04:24:23.075Z,7.60
2022-08-27T04:25:23.098Z,7.30
2022-08-27T04:26:23.103Z,7.60
2022-08-27T04:27:23.072Z,7.60
2022-08-27T04:28:23.105Z,7.30
2022-08-27T04:29:23.049Z,8.00
2022-08-27T04:30:23.035Z,7.90
2022-08-27T04:31:23.049Z,8.30
2022-08-27T04:32:23.010Z,7.40
2022-08-27T04:33:22.996Z,7.90
2022-08-27T04:34:22.984Z,7.30
2022-08-27T04:35:22.963Z,7.70
2022-08-27T04:36:22.948Z,6.90
2022-08-27T04:37:23.270Z,7.10
2022-08-27T04:38:22.924Z,7.80
2022-08-27T04:39:22.925Z,7.40
2022-08-27T04:40:22.987Z,7.40
2022-08-27T04:41:22.894Z,7.60
2022-08-27T04:42:22.907Z,7.70
2022-08-27T04:43:22.893Z,6.50
2022-08-27T04:44:22.854Z,6.90
2022-08-27T04:45:22.845Z,8.30
2022-08-27T04:46:22.856Z,7.40
2022-08-27T04:47:22.837Z,7.90
2022-08-27T04:48:22.815Z,7.50
2022-08-27T04:49:22.803Z,7.90
2022-08-27T04:50:22.804Z,8.10
2022-08-27T04:51:22.773Z,8.90
2022-08-27T04:52:22.786Z,7.40
2022-08-27T04:53:22.753Z,7.40
2022-08-27T04:54:32.824Z,6.50
2022-08-27T04:55:23.776Z,7.30
2022-08-27T04:56:22.748Z,6.80
2022-08-27T04:57:22.735Z,6.80
2022-08-27T04:58:22.727Z,6.50
2022-08-27T04:59:22.725Z,6.90
2022-08-27T05:00:22.698Z,8.10
2022-08-27T05:01:22.754Z,7.10
2022-08-27T05:02:22.693Z,8.00
2022-08-27T05:03:22.668Z,7.70
2022-08-27T05:04:22.653Z,6.90
2022-08-27T05:05:22.671Z,7.90
2022-08-27T05:06:22.613Z,8.30
2022-08-27T05:07:22.654Z,8.80
2022-08-27T05:08:22.627Z,8.50
2022-08-27T05:09:24.520Z,9.20
2022-08-27T05:10:22.582Z,8.20
2022-08-27T05:11:22.574Z,7.90
2022-08-27T05:12:22.554Z,8.10
2022-08-27T05:13:22.591Z,8.40
2022-08-27T05:14:22.546Z,8.50
2022-08-27T05:15:22.607Z,8.40
2022-08-27T05:16:22.637Z,8.60
2022-08-27T05:17:22.511Z,8.80
2022-08-27T05:18:22.505Z,7.90
2022-08-27T05:19:22.506Z,6.80
2022-08-27T05:20:22.453Z,7.60
2022-08-27T05:21:22.501Z,7.80
2022-08-27T05:22:22.439Z,8.20
2022-08-27T05:23:22.446Z,7.50
2022-08-27T05:24:22.439Z,7.40
2022-08-27T05:25:22.456Z,6.80
2022-08-27T05:26:22.402Z,6.50
2022-08-27T05:27:22.406Z,7.80
2022-08-27T05:28:22.406Z,7.20
2022-08-27T05:29:23.367Z,6.60
2022-08-27T05:30:22.374Z,5.80
2022-08-27T05:31:22.470Z,6.90
2022-08-27T05:32:22.354Z,7.40
2022-08-27T05:33:22.322Z,6.50
2022-08-27T05:34:25.832Z,6.30
2022-08-27T05:35:23.296Z,6.40
2022-08-27T05:36:22.297Z,6.10
2022-08-27T05:37:22.303Z,5.80
2022-08-27T05:38:22.313Z,6.40
2022-08-27T05:39:22.280Z,7.00
2022-08-27T05:40:22.305Z,6.10
2022-08-27T05:41:22.243Z,6.20
2022-08-27T05:42:22.238Z,6.00
2022-08-27T05:43:22.223Z,5.80
2022-08-27T05:44:40.989Z,6.50
2022-08-27T05:45:23.202Z,6.90
2022-08-27T05:46:22.247Z,6.30
2022-08-27T05:47:22.172Z,6.40
2022-08-27T05:48:22.173Z,5.50
2022-08-27T05:49:22.156Z,5.30
2022-08-27T05:50:23.781Z,6.50
2022-08-27T05:51:25.384Z,6.80
2022-08-27T05:52:22.122Z,5.70
2022-08-27T05:53:22.137Z,5.70
2022-08-27T05:54:22.115Z,6.60
2022-08-27T05:55:22.116Z,5.90
2022-08-27T05:56:22.075Z,5.90
2022-08-27T05:57:22.083Z,6.00
2022-08-27T05:58:22.075Z,5.80
2022-08-27T05:59:22.056Z,6.40
2022-08-27T06:00:22.037Z,5.80
2022-08-27T06:01:22.052Z,6.60
2022-08-27T06:02:22.034Z,6.60
2022-08-27T06:03:22.006Z,7.70
2022-08-27T06:04:22.060Z,7.60
2022-08-27T06:05:22.025Z,6.80
2022-08-27T06:06:21.952Z,7.60
2022-08-27T06:07:21.956Z,7.90
2022-08-27T06:08:22.041Z,7.50
2022-08-27T06:09:21.921Z,7.60
2022-08-27T06:10:21.940Z,7.60
2022-08-27T06:11:21.917Z,7.80
2022-08-27T06:12:28.209Z,7.40
2022-08-27T06:13:22.895Z,7.30
2022-08-27T06:14:21.914Z,7.40
2022-08-27T06:15:21.873Z,7.50
2022-08-27T06:16:21.904Z,7.80
2022-08-27T06:17:21.907Z,7.80
2022-08-27T06:18:21.822Z,8.10
2022-08-27T06:19:21.812Z,8.10
2022-08-27T06:20:21.801Z,7.90
2022-08-27T06:21:24.594Z,7.80
2022-08-27T06:22:21.807Z,7.60
2022-08-27T06:23:27.721Z,7.70
2022-08-27T06:24:22.757Z,7.90
2022-08-27T06:25:21.752Z,7.50
2022-08-27T06:26:21.754Z,7.30
2022-08-27T06:27:21.754Z,7.80
2022-08-27T06:28:21.725Z,7.70
2022-08-27T06:29:21.703Z,8.00
2022-08-27T06:30:21.714Z,7.30
2022-08-27T06:31:21.770Z,7.70
2022-08-27T06:32:21.671Z,7.00
2022-08-27T06:33:21.673Z,8.10
2022-08-27T06:34:21.679Z,7.60
2022-08-27T06:35:21.665Z,7.30
2022-08-27T06:36:21.645Z,7.40
2022-08-27T06:37:21.653Z,8.10
2022-08-27T06:38:21.613Z,7.70
2022-08-27T06:39:21.603Z,7.40
2022-08-27T06:40:21.702Z,7.20
2022-08-27T06:41:23.531Z,6.80
2022-08-27T06:42:21.586Z,6.90
2022-08-27T06:43:24.999Z,6.50
2022-08-27T06:44:21.545Z,5.30
2022-08-27T06:45:21.576Z,5.70
2022-08-27T06:46:21.575Z,6.40
2022-08-27T06:47:21.525Z,5.50
2022-08-27T06:48:21.499Z,6.10
2022-08-27T06:49:21.550Z,5.60
2022-08-27T06:50:25.438Z,6.00
2022-08-27T06:51:22.471Z,6.20
2022-08-27T06:52:21.466Z,5.80
2022-08-27T06:53:24.224Z,5.80
2022-08-27T06:54:21.461Z,5.80
2022-08-27T06:55:21.425Z,6.20
2022-08-27T06:56:21.403Z,6.70
2022-08-27T06:57:21.432Z,6.40
2022-08-27T06:58:21.381Z,5.90
2022-08-27T06:59:21.395Z,5.70
2022-08-27T07:00:21.414Z,5.70
2022-08-27T07:01:21.436Z,5.80
2022-08-27T07:02:21.390Z,6.20
2022-08-27T07:03:21.353Z,5.90
2022-08-27T07:04:21.319Z,6.10
2022-08-27T07:05:21.321Z,6.20
2022-08-27T07:06:21.301Z,5.90
2022-08-27T07:07:32.659Z,6.30
2022-08-27T07:08:22.326Z,5.30
2022-08-27T07:09:21.275Z,5.90
2022-08-27T07:10:21.296Z,5.60
2022-08-27T07:11:21.243Z,5.60
2022-08-27T07:12:21.231Z,5.80
2022-08-27T07:13:22.240Z,5.40
2022-08-27T07:14:21.219Z,5.40
2022-08-27T07:15:22.178Z,5.10
2022-08-27T07:16:22.233Z,5.20
2022-08-27T07:17:21.181Z,5.50
2022-08-27T07:18:21.197Z,5.70
2022-08-27T07:19:22.164Z,5.40
2022-08-27T07:20:21.164Z,5.50
2022-08-27T07:21:21.157Z,5.70
2022-08-27T07:22:21.133Z,6.20
2022-08-27T07:23:21.180Z,6.80
2022-08-27T07:24:21.101Z,6.60
2022-08-27T07:25:21.104Z,5.80
2022-08-27T07:26:21.124Z,6.00
2022-08-27T07:27:21.103Z,6.20
2022-08-27T07:28:21.073Z,6.20
2022-08-27T07:29:21.053Z,5.70
2022-08-27T07:30:21.034Z,5.80
2022-08-27T07:31:21.110Z,5.60
2022-08-27T07:32:21.029Z,5.40
2022-08-27T07:33:22.014Z,5.80
2022-08-27T07:34:21.019Z,6.10
2022-08-27T07:35:20.988Z,6.50
2022-08-27T07:36:21.022Z,5.40
2022-08-27T07:37:20.971Z,5.90
2022-08-27T07:38:20.988Z,5.60
2022-08-27T07:39:20.965Z,6.00
2022-08-27T07:40:21.031Z,5.90
2022-08-27T07:41:20.931Z,6.40
2022-08-27T07:42:20.931Z,5.80
2022-08-27T07:43:20.900Z,6.00
2022-08-27T07:44:20.907Z,5.50
2022-08-27T07:45:21.885Z,6.20
2022-08-27T07:46:20.919Z,5.80
2022-08-27T07:47:21.032Z,5.60
2022-08-27T07:48:20.898Z,6.20
2022-08-27T07:49:20.870Z,5.70
2022-08-27T07:50:20.856Z,6.10
2022-08-27T07:51:20.817Z,5.60
2022-08-27T07:52:23.594Z,5.60
2022-08-27T07:53:21.787Z,5.80
2022-08-27T07:54:20.787Z,5.20
2022-08-27T07:55:20.787Z,5.90
2022-08-27T07:56:20.768Z,5.40
2022-08-27T07:57:20.756Z,6.20
2022-08-27T07:58:20.826Z,6.00
2022-08-27T07:59:20.744Z,5.70
2022-08-27T08:00:20.770Z,5.40
2022-08-27T08:01:20.759Z,5.50
2022-08-27T08:02:20.793Z,5.60
2022-08-27T08:03:20.691Z,6.10
2022-08-27T08:04:20.805Z,5.60
2022-08-27T08:05:20.678Z,5.30
2022-08-27T08:06:20.734Z,4.70
2022-08-27T08:07:20.639Z,5.30
2022-08-27T08:08:20.625Z,5.30
2022-08-27T08:09:20.631Z,5.80
2022-08-27T08:10:20.615Z,5.80
2022-08-27T08:11:20.614Z,5.30
2022-08-27T08:12:26.485Z,5.60
2022-08-27T08:13:21.585Z,5.20
2022-08-27T08:14:20.573Z,5.80
2022-08-27T08:15:20.603Z,6.00
2022-08-27T08:16:20.598Z,5.80
2022-08-27T08:17:20.557Z,5.80
2022-08-27T08:18:20.524Z,5.80
2022-08-27T08:19:20.501Z,5.80
2022-08-27T08:20:31.197Z,6.60
2022-08-27T08:21:21.570Z,6.60
2022-08-27T08:22:20.480Z,6.60
2022-08-27T08:23:20.464Z,6.00
2022-08-27T08:24:20.449Z,5.20
2022-08-27T08:25:20.465Z,5.30
2022-08-27T08:26:20.422Z,5.80
2022-08-27T08:27:20.424Z,5.70
2022-08-27T08:28:20.434Z,6.40
2022-08-27T08:29:20.404Z,6.30
2022-08-27T08:30:20.392Z,6.00
2022-08-27T08:31:20.431Z,5.50
2022-08-27T08:32:20.397Z,4.80
2022-08-27T08:33:20.347Z,5.80
2022-08-27T08:34:20.360Z,5.70
2022-08-27T08:35:20.334Z,5.80
2022-08-27T08:36:20.343Z,5.60
2022-08-27T08:37:20.311Z,5.70
2022-08-27T08:38:20.325Z,6.80
2022-08-27T08:39:20.304Z,7.20
2022-08-27T08:40:20.336Z,6.40
2022-08-27T08:41:20.251Z,7.20
2022-08-27T08:42:20.274Z,6.90
2022-08-27T08:43:20.256Z,6.80
2022-08-27T08:44:20.245Z,6.80
2022-08-27T08:45:20.237Z,6.80
2022-08-27T08:46:20.276Z,6.60
2022-08-27T08:47:20.181Z,7.00
2022-08-27T08:48:20.204Z,7.20
2022-08-27T08:49:21.518Z,7.40
2022-08-27T08:50:20.248Z,8.00
2022-08-27T08:51:20.151Z,7.90
2022-08-27T08:52:26.954Z,8.00
2022-08-27T08:57:19.742Z,7.00
2022-08-27T08:58:19.697Z,7.50
2022-08-27T08:59:19.702Z,8.90
2022-08-27T09:00:19.701Z,9.70
2022-08-27T09:01:19.721Z,9.10
2022-08-27T09:02:19.664Z,9.00
2022-08-27T09:03:19.868Z,8.60
2022-08-27T09:04:19.657Z,8.70
2022-08-27T09:05:19.642Z,8.80
2022-08-27T09:06:19.625Z,8.20
2022-08-27T09:07:19.625Z,8.20
2022-08-27T09:08:34.145Z,9.70
2022-08-27T09:09:20.607Z,10.40
2022-08-27T09:10:19.597Z,10.00
2022-08-27T09:11:19.593Z,9.90
2022-08-27T09:12:19.561Z,9.50
2022-08-27T09:13:19.591Z,9.30
2022-08-27T09:14:19.561Z,11.10
2022-08-27T09:15:19.533Z,9.00
2022-08-27T09:16:19.512Z,10.60
2022-08-27T09:17:19.492Z,11.70
2022-08-27T09:18:19.510Z,11.60
2022-08-27T09:19:24.015Z,11.10
2022-08-27T09:20:20.490Z,12.70
2022-08-27T09:21:27.785Z,11.10
2022-08-27T09:22:20.459Z,13.50
2022-08-27T09:23:19.463Z,11.50
2022-08-27T09:24:19.634Z,12.50
2022-08-27T09:25:21.036Z,11.60
2022-08-27T09:26:19.443Z,10.00
2022-08-27T09:27:19.408Z,10.70
2022-08-27T09:28:19.395Z,9.40
2022-08-27T09:29:19.399Z,11.10
2022-08-27T09:30:19.374Z,10.70
2022-08-27T09:31:19.470Z,11.30
2022-08-27T09:32:19.330Z,10.90
2022-08-27T09:33:19.331Z,10.10
2022-08-27T09:34:19.324Z,10.50
2022-08-27T09:35:19.371Z,7.70
2022-08-27T09:36:23.439Z,8.30
2022-08-27T09:37:19.290Z,9.10
2022-08-27T09:38:19.282Z,8.80
2022-08-27T09:39:19.296Z,9.50
2022-08-27T09:40:23.056Z,11.20
2022-08-27T09:41:19.266Z,11.60
2022-08-27T09:42:19.261Z,11.10
2022-08-27T09:43:19.231Z,9.90
2022-08-27T09:44:19.210Z,10.50
2022-08-27T09:45:19.215Z,10.70
2022-08-27T09:46:19.249Z,11.50
2022-08-27T09:47:19.210Z,11.50
2022-08-27T09:48:19.204Z,11.30
2022-08-27T09:49:19.162Z,11.90
2022-08-27T09:50:19.197Z,11.70
2022-08-27T09:51:21.889Z,9.90
2022-08-27T09:52:19.158Z,12.90
2022-08-27T09:53:19.155Z,12.40
2022-08-27T09:54:19.100Z,10.30
2022-08-27T09:55:19.099Z,10.60
2022-08-27T09:56:19.079Z,10.00
2022-08-27T09:57:19.513Z,11.10
2022-08-27T09:58:19.154Z,11.60
2022-08-27T09:59:19.072Z,11.20
2022-08-27T10:00:19.073Z,11.80
2022-08-27T10:01:19.127Z,10.90
2022-08-27T10:02:19.023Z,12.30
2022-08-27T10:03:19.027Z,9.60
2022-08-27T10:04:19.202Z,11.40
2022-08-27T10:05:19.040Z,11.00
2022-08-27T10:06:18.970Z,8.50
2022-08-27T10:07:19.046Z,8.80
2022-08-27T10:08:19.029Z,9.70
2022-08-27T10:09:18.971Z,8.30
2022-08-27T10:10:18.938Z,9.20
2022-08-27T10:11:18.985Z,9.60
2022-08-27T10:12:19.022Z,9.10
2022-08-27T10:13:18.943Z,11.70
2022-08-27T10:14:18.879Z,12.50
2022-08-27T10:15:18.887Z,11.70
2022-08-27T10:16:18.927Z,12.00
2022-08-27T10:17:18.849Z,10.70
2022-08-27T10:18:18.859Z,10.90
2022-08-27T10:19:18.855Z,12.00
2022-08-27T10:20:24.300Z,12.40
2022-08-27T10:21:19.852Z,10.90
2022-08-27T10:22:18.813Z,10.10
2022-08-27T10:23:18.812Z,11.90
2022-08-27T10:24:18.789Z,12.50
2022-08-27T10:25:18.790Z,12.30
2022-08-27T10:26:18.772Z,12.10
2022-08-27T10:27:18.754Z,12.10
2022-08-27T10:28:18.772Z,10.50
2022-08-27T10:29:18.770Z,12.40
2022-08-27T10:30:18.729Z,11.50
2022-08-27T10:31:18.755Z,12.20
2022-08-27T10:32:18.698Z,12.00
2022-08-27T10:33:23.283Z,11.60
2022-08-27T10:34:19.701Z,12.30
2022-08-27T10:35:18.689Z,11.80
2022-08-27T10:36:18.671Z,10.90
2022-08-27T10:37:19.733Z,11.70
2022-08-27T10:38:18.630Z,12.00
2022-08-27T10:39:18.668Z,13.10
2022-08-27T10:40:18.658Z,13.20
2022-08-27T10:41:18.610Z,13.10
2022-08-27T10:42:18.587Z,12.90
2022-08-27T10:43:18.592Z,11.80
2022-08-27T10:44:18.578Z,12.00
2022-08-27T10:45:30.534Z,11.60
2022-08-27T10:46:21.869Z,11.80
2022-08-27T10:47:19.532Z,12.20
2022-08-27T10:48:18.508Z,12.30
2022-08-27T10:49:21.436Z,12.20
2022-08-27T10:50:18.573Z,12.30
2022-08-27T10:51:18.529Z,12.50
2022-08-27T10:52:18.510Z,12.80
2022-08-27T10:53:18.491Z,12.10
2022-08-27T10:54:18.490Z,12.40
2022-08-27T10:55:18.449Z,12.70
2022-08-27T10:56:18.449Z,13.50
2022-08-27T10:57:54.014Z,12.10
2022-08-27T10:58:19.433Z,12.50
2022-08-27T10:59:18.453Z,12.00
2022-08-27T11:00:18.423Z,12.90
2022-08-27T11:01:18.463Z,12.10
2022-08-27T11:02:18.477Z,13.00
2022-08-27T11:03:18.367Z,13.40
2022-08-27T11:04:18.361Z,13.00
2022-08-27T11:05:18.328Z,12.00
2022-08-27T11:06:18.332Z,13.10
2022-08-27T11:07:18.308Z,12.10
2022-08-27T11:08:18.330Z,13.10
2022-08-27T11:09:18.316Z,12.80
2022-08-27T11:10:18.328Z,12.30
2022-08-27T11:12:19.257Z,10.50
2022-08-27T11:13:18.282Z,12.60
2022-08-27T11:14:18.240Z,12.50
2022-08-27T11:15:18.263Z,11.80
2022-08-27T11:16:18.264Z,12.40
2022-08-27T11:17:18.202Z,11.40
2022-08-27T11:18:18.199Z,11.60
2022-08-27T11:19:18.190Z,9.90
2022-08-27T11:20:18.207Z,9.40
2022-08-27T11:21:18.191Z,9.10
2022-08-27T11:22:26.284Z,9.60
2022-08-27T11:23:19.149Z,10.50
2022-08-27T11:24:18.159Z,9.80
2022-08-27T11:25:18.119Z,8.60
2022-08-27T11:26:18.114Z,9.10
2022-08-27T11:27:18.089Z,9.50
2022-08-27T11:28:18.090Z,7.30
2022-08-27T11:29:18.124Z,6.00
2022-08-27T11:30:18.104Z,5.80
2022-08-27T11:31:18.170Z,5.80
2022-08-27T11:32:18.051Z,4.90
2022-08-27T11:33:18.040Z,5.70
2022-08-27T11:34:18.028Z,5.70
2022-08-27T11:35:18.030Z,6.20
2022-08-27T11:36:18.241Z,6.40
2022-08-27T11:37:18.008Z,5.50
2022-08-27T11:38:17.978Z,5.30
2022-08-27T11:39:17.987Z,5.40
2022-08-27T11:40:18.152Z,5.30
2022-08-27T11:41:17.951Z,5.90
2022-08-27T11:42:17.938Z,5.60
2022-08-27T11:43:17.960Z,6.20
2022-08-27T11:44:17.994Z,5.50
2022-08-27T11:45:18.161Z,6.60
2022-08-27T11:46:17.914Z,6.60
2022-08-27T11:47:19.108Z,7.30
2022-08-27T11:48:17.900Z,5.30
2022-08-27T11:49:17.880Z,5.30
2022-08-27T11:50:17.863Z,6.90
2022-08-27T11:51:19.073Z,6.90
2022-08-27T11:52:18.019Z,5.60
2022-08-27T11:53:18.035Z,6.70
2022-08-27T11:54:17.851Z,6.00
2022-08-27T11:55:17.800Z,6.00
2022-08-27T11:56:17.777Z,6.60
2022-08-27T11:57:17.788Z,7.00
2022-08-27T11:58:17.767Z,7.00
2022-08-27T11:59:17.847Z,6.90
2022-08-27T12:00:17.829Z,7.30
2022-08-27T12:01:17.828Z,6.20
2022-08-27T12:02:17.771Z,6.80
2022-08-27T12:03:17.731Z,7.80
2022-08-27T12:04:17.774Z,6.90
2022-08-27T12:05:17.705Z,5.90
2022-08-27T12:06:17.667Z,6.50
2022-08-27T12:07:17.661Z,6.90
2022-08-27T12:08:18.578Z,6.00
2022-08-27T12:09:17.638Z,7.10
2022-08-27T12:10:17.655Z,7.00
2022-08-27T12:11:17.649Z,6.80
2022-08-27T12:12:17.629Z,6.90
2022-08-27T12:13:17.607Z,6.00
2022-08-27T12:14:17.615Z,7.40
2022-08-27T12:15:17.577Z,7.10
2022-08-27T12:16:17.600Z,7.50
2022-08-27T12:17:17.560Z,7.30
2022-08-27T12:18:17.560Z,7.30
2022-08-27T12:19:17.538Z,8.30
2022-08-27T12:20:17.541Z,8.40
2022-08-27T12:21:17.679Z,8.00
2022-08-27T12:22:17.546Z,8.30
2022-08-27T12:23:17.509Z,7.70
2022-08-27T12:24:17.508Z,7.90
2022-08-27T12:25:17.486Z,7.60
2022-08-27T12:26:17.490Z,7.40
2022-08-27T12:27:17.470Z,7.70
2022-08-27T12:28:17.462Z,7.60
2022-08-27T12:29:17.418Z,7.30
2022-08-27T12:30:17.460Z,7.80
2022-08-27T12:31:17.458Z,7.90
2022-08-27T12:32:17.417Z,6.90
2022-08-27T12:33:17.566Z,7.40
2022-08-27T12:34:17.411Z,7.50
2022-08-27T12:35:17.376Z,7.10
2022-08-27T12:36:18.270Z,7.90
2022-08-27T12:37:18.342Z,7.40
2022-08-27T12:38:17.349Z,8.10
2022-08-27T12:39:17.371Z,8.40
2022-08-27T12:40:17.330Z,8.30
2022-08-27T12:41:19.609Z,10.00
2022-08-27T12:42:17.297Z,10.40
2022-08-27T12:43:17.331Z,10.10
2022-08-27T12:44:17.274Z,10.70
2022-08-27T12:45:17.262Z,9.30
2022-08-27T12:46:17.290Z,10.00
2022-08-27T12:47:17.231Z,9.20
2022-08-27T12:48:17.231Z,9.50
2022-08-27T12:49:38.726Z,9.50
2022-08-27T12:50:18.234Z,9.20
2022-08-27T12:51:17.210Z,9.30
2022-08-27T12:52:17.206Z,9.00
2022-08-27T12:53:17.193Z,9.20
2022-08-27T12:54:17.199Z,9.40
2022-08-27T12:55:17.159Z,8.60
2022-08-27T12:56:17.142Z,9.20
2022-08-27T12:57:17.144Z,8.80
2022-08-27T12:58:17.311Z,9.70
2022-08-27T12:59:17.113Z,8.90
2022-08-27T13:00:17.111Z,9.20
2022-08-27T13:01:17.238Z,9.20
2022-08-27T13:02:17.103Z,9.20
2022-08-27T13:03:17.068Z,8.60
2022-08-27T13:04:17.379Z,9.40
2022-08-27T13:05:17.050Z,7.90
2022-08-27T13:06:17.118Z,7.90
2022-08-27T13:07:17.023Z,8.10
2022-08-27T13:08:17.018Z,7.90
2022-08-27T13:09:16.979Z,7.80
2022-08-27T13:10:16.981Z,8.20
2022-08-27T13:11:16.962Z,8.90
2022-08-27T13:12:16.964Z,7.50
2022-08-27T13:13:16.970Z,7.90
2022-08-27T13:14:16.950Z,7.70
2022-08-27T13:15:16.950Z,7.90
2022-08-27T13:16:17.482Z,7.90
2022-08-27T13:17:16.999Z,7.60
2022-08-27T13:18:16.947Z,7.80
2022-08-27T13:19:16.895Z,7.10